createdAt,value
2022-11-26T00:02:20.295Z,5.50
2022-11-26T00:04:48.109Z,5.40
2022-11-26T00:07:18.545Z,5.40
2022-11-26T00:09:45.688Z,5.40
2022-11-26T00:12:39.048Z,5.40
2022-11-26T00:15:20.535Z,5.40
2022-11-26T00:17:48.288Z,5.40
2022-11-26T00:20:16.395Z,5.40
2022-11-26T00:22:51.854Z,5.30
2022-11-26T00:25:40.274Z,5.30
2022-11-26T00:28:37.267Z,5.30
2022-11-26T00:31:10.838Z,5.30
2022-11-26T00:33:37.905Z,5.30
2022-11-26T00:36:17.331Z,5.30
2022-11-26T00:38:45.973Z,5.30
2022-11-26T00:41:20.664Z,5.30
2022-11-26T00:43:48.390Z,5.30
2022-11-26T00:46:16.824Z,5.30
2022-11-26T00:48:44.222Z,5.30
2022-11-26T00:51:23.383Z,5.30
2022-11-26T00:53:52.168Z,5.30
2022-11-26T00:56:21.672Z,5.30
2022-11-26T00:58:49.864Z,5.30
2022-11-26T01:01:26.557Z,5.30
2022-11-26T01:03:53.713Z,5.30
2022-11-26T01:06:24.631Z,5.30
2022-11-26T01:08:52.079Z,5.30
2022-11-26T01:11:22.038Z,5.30
2022-11-26T01:13:52.089Z,5.30
2022-11-26T01:16:26.422Z,5.30
2022-11-26T01:18:57.457Z,5.30
2022-11-26T01:21:27.106Z,5.90
2022-11-26T01:23:54.166Z,5.40
2022-11-26T01:26:27.867Z,5.40
2022-11-26T01:28:55.728Z,5.40
2022-11-26T01:31:26.567Z,5.40
2022-11-26T01:33:54.574Z,5.40
2022-11-26T01:36:51.211Z,5.40
2022-11-26T01:39:23.454Z,5.40
2022-11-26T01:42:06.796Z,5.50
2022-11-26T01:44:36.503Z,5.50
2022-11-26T01:47:26.578Z,5.40
2022-11-26T01:50:30.890Z,5.50
2022-11-26T01:53:21.661Z,5.50
2022-11-26T01:56:02.057Z,5.40
2022-11-26T01:58:42.505Z,5.50
2022-11-26T02:01:10.265Z,5.50
2022-11-26T02:04:15.393Z,5.50
2022-11-26T02:06:45.101Z,5.50
2022-11-26T02:09:12.640Z,5.50
2022-11-26T02:11:40.273Z,5.50
2022-11-26T02:14:38.314Z,5.60
2022-11-26T02:17:39.887Z,5.50
2022-11-26T02:20:17.387Z,5.50
2022-11-26T02:23:06.598Z,5.50
2022-11-26T02:26:02.647Z,5.50
2022-11-26T02:28:53.948Z,5.50
2022-11-26T02:31:21.056Z,5.50
2022-11-26T02:34:07.296Z,5.60
2022-11-26T02:36:40.894Z,5.60
2022-11-26T02:39:16.927Z,5.60
2022-11-26T02:41:50.815Z,5.60
2022-11-26T02:44:21.814Z,5.60
2022-11-26T02:46:52.726Z,5.60
2022-11-26T02:49:22.405Z,5.60
2022-11-26T02:51:54.787Z,5.60
2022-11-26T02:54:24.599Z,5.70
2022-11-26T02:56:52.804Z,5.60
2022-11-26T02:59:20.368Z,5.70
2022-11-26T03:02:06.049Z,5.70
2022-11-26T03:04:37.774Z,5.70
2022-11-26T03:07:07.842Z,5.70
2022-11-26T03:09:49.227Z,5.70
2022-11-26T03:12:16.627Z,5.70
2022-11-26T03:14:43.711Z,5.70
2022-11-26T03:17:10.799Z,5.70
2022-11-26T03:19:38.054Z,5.70
2022-11-26T03:22:05.428Z,5.70
2022-11-26T03:24:32.809Z,5.70
2022-11-26T03:27:00.124Z,5.70
2022-11-26T03:29:27.506Z,5.70
2022-11-26T03:31:54.650Z,5.70
2022-11-26T03:34:21.748Z,5.70
2022-11-26T03:36:48.958Z,5.70
2022-11-26T03:39:16.253Z,5.70
2022-11-26T03:41:44.408Z,5.70
2022-11-26T03:44:12.343Z,5.70
2022-11-26T03:46:39.678Z,5.70
2022-11-26T03:49:07.173Z,5.70
2022-11-26T03:51:34.611Z,5.70
2022-11-26T03:54:01.625Z,5.70
2022-11-26T03:56:28.692Z,5.70
2022-11-26T03:58:55.765Z,5.80
2022-11-26T04:01:23.030Z,5.80
2022-11-26T04:03:50.080Z,5.80
2022-11-26T04:06:17.136Z,5.80
2022-11-26T04:08:44.242Z,5.80
2022-11-26T04:11:11.296Z,5.80
2022-11-26T04:13:38.460Z,5.80
2022-11-26T04:16:05.844Z,5.80
2022-11-26T04:18:33.141Z,5.80
2022-11-26T04:21:00.364Z,5.90
2022-11-26T04:23:27.495Z,5.90
2022-11-26T04:25:54.520Z,6.00
2022-11-26T04:28:21.606Z,5.90
2022-11-26T04:30:48.679Z,5.90
2022-11-26T04:33:15.956Z,5.90
2022-11-26T04:35:43.116Z,5.90
2022-11-26T04:38:10.372Z,5.90
2022-11-26T04:40:37.697Z,5.90
2022-11-26T04:43:08.470Z,5.90
2022-11-26T04:45:35.660Z,5.90
2022-11-26T04:48:02.736Z,6.00
2022-11-26T04:50:29.837Z,6.00
2022-11-26T04:52:56.926Z,6.00
2022-11-26T04:55:24.117Z,6.00
2022-11-26T04:57:51.260Z,6.00
2022-11-26T05:00:19.253Z,6.00
2022-11-26T05:02:46.401Z,6.00
2022-11-26T05:05:13.912Z,6.00
2022-11-26T05:07:41.237Z,6.00
2022-11-26T05:10:09.654Z,6.00
2022-11-26T05:12:37.413Z,6.00
2022-11-26T05:15:05.582Z,6.00
2022-11-26T05:17:33.468Z,6.00
2022-11-26T05:20:00.597Z,6.00
2022-11-26T05:22:27.854Z,6.00
2022-11-26T05:24:54.939Z,6.00
2022-11-26T05:27:22.160Z,5.90
2022-11-26T05:29:49.320Z,5.90
2022-11-26T05:32:16.397Z,5.90
2022-11-26T05:34:43.567Z,6.00
2022-11-26T05:37:10.825Z,6.00
2022-11-26T05:39:38.130Z,6.00
2022-11-26T05:42:09.151Z,6.00
2022-11-26T05:44:37.229Z,6.00
2022-11-26T05:47:04.916Z,6.00
2022-11-26T05:49:31.988Z,6.00
2022-11-26T05:51:59.582Z,6.00
2022-11-26T05:54:26.837Z,5.90
2022-11-26T05:56:58.601Z,5.90
2022-11-26T05:59:27.490Z,5.90
2022-11-26T06:01:54.654Z,5.90
2022-11-26T06:04:22.111Z,5.90
2022-11-26T06:06:49.227Z,5.90
2022-11-26T06:09:16.345Z,5.90
2022-11-26T06:11:43.479Z,5.90
2022-11-26T06:14:10.802Z,5.90
2022-11-26T06:16:38.072Z,5.90
2022-11-26T06:19:05.311Z,5.90
2022-11-26T06:21:32.364Z,5.80
2022-11-26T06:24:00.030Z,5.90
2022-11-26T06:26:27.321Z,5.80
2022-11-26T06:28:54.637Z,5.80
2022-11-26T06:31:22.033Z,5.90
2022-11-26T06:33:52.931Z,5.90
2022-11-26T06:36:20.001Z,5.80
2022-11-26T06:38:47.335Z,5.80
2022-11-26T06:41:14.409Z,5.80
2022-11-26T06:43:41.513Z,5.90
2022-11-26T06:46:11.719Z,5.80
2022-11-26T06:48:39.732Z,5.90
2022-11-26T06:51:10.206Z,5.90
2022-11-26T06:53:37.611Z,5.90
2022-11-26T06:56:07.063Z,5.80
2022-11-26T06:58:34.490Z,5.90
2022-11-26T07:01:07.792Z,5.80
2022-11-26T07:03:35.192Z,5.80
2022-11-26T07:06:02.295Z,5.90
2022-11-26T07:08:29.674Z,5.80
2022-11-26T07:10:56.820Z,5.90
2022-11-26T07:13:23.854Z,5.80
2022-11-26T07:15:51.129Z,5.80
2022-11-26T07:18:18.214Z,5.80
2022-11-26T07:20:45.235Z,5.80
2022-11-26T07:23:12.299Z,5.90
2022-11-26T07:25:39.456Z,5.90
2022-11-26T07:28:06.669Z,5.90
2022-11-26T07:30:33.737Z,5.90
2022-11-26T07:33:00.897Z,5.90
2022-11-26T07:35:28.059Z,5.90
2022-11-26T07:37:55.273Z,5.90
2022-11-26T07:40:23.192Z,6.00
2022-11-26T07:42:53.233Z,6.00
2022-11-26T07:45:20.517Z,6.00
2022-11-26T07:47:47.655Z,6.00
2022-11-26T07:50:15.327Z,6.00
2022-11-26T07:52:42.682Z,6.00
2022-11-26T07:55:12.700Z,6.10
2022-11-26T07:57:39.969Z,6.10
2022-11-26T08:00:07.776Z,6.20
2022-11-26T08:02:34.879Z,6.20
2022-11-26T08:05:01.940Z,6.20
2022-11-26T08:07:29.641Z,6.20
2022-11-26T08:09:56.951Z,6.20
2022-11-26T08:12:24.062Z,6.20
2022-11-26T08:14:51.131Z,6.20
2022-11-26T08:17:18.213Z,6.20
2022-11-26T08:19:45.331Z,6.20
2022-11-26T08:22:12.365Z,6.20
2022-11-26T08:24:40.554Z,6.20
2022-11-26T08:27:07.732Z,6.20
2022-11-26T08:29:36.983Z,6.20
2022-11-26T08:32:04.687Z,6.20
2022-11-26T08:34:31.819Z,6.30
2022-11-26T08:36:58.895Z,6.30
2022-11-26T08:39:25.988Z,6.30
2022-11-26T08:41:53.375Z,6.30
2022-11-26T08:44:21.600Z,6.30
2022-11-26T08:46:49.447Z,6.30
2022-11-26T08:49:17.226Z,6.40
2022-11-26T08:51:44.855Z,6.40
2022-11-26T08:54:12.237Z,6.40
2022-11-26T08:56:39.374Z,6.40
2022-11-26T08:59:06.522Z,6.40
2022-11-26T09:01:34.726Z,6.50
2022-11-26T09:04:03.521Z,6.50
2022-11-26T09:06:31.928Z,6.50
2022-11-26T09:09:13.221Z,6.50
2022-11-26T09:11:50.913Z,6.50
2022-11-26T09:14:25.211Z,6.50
2022-11-26T09:16:53.850Z,6.50
2022-11-26T09:19:21.318Z,6.60
2022-11-26T09:21:48.937Z,6.60
2022-11-26T09:24:17.479Z,6.60
2022-11-26T09:26:45.584Z,6.60
2022-11-26T09:29:18.330Z,6.60
2022-11-26T09:32:15.495Z,6.60
2022-11-26T09:34:34.159Z,6.60
2022-11-26T09:37:01.554Z,6.70
2022-11-26T09:39:28.801Z,6.70
2022-11-26T09:42:12.986Z,6.70
2022-11-26T09:45:05.040Z,6.70
2022-11-26T09:47:41.005Z,6.80
2022-11-26T09:50:16.386Z,6.80
2022-11-26T09:53:02.295Z,6.80
2022-11-26T09:55:40.634Z,6.80
2022-11-26T09:58:22.217Z,6.90
2022-11-26T10:00:55.156Z,6.90
2022-11-26T10:03:34.628Z,6.90
2022-11-26T10:06:28.872Z,7.00
2022-11-26T10:09:21.303Z,7.00
2022-11-26T10:12:24.432Z,7.00
2022-11-26T10:15:13.833Z,7.00
2022-11-26T10:17:51.473Z,7.10
2022-11-26T10:21:06.239Z,8.20
2022-11-26T10:23:42.479Z,7.20
2022-11-26T10:26:27.627Z,7.30
2022-11-26T10:29:15.130Z,7.20
2022-11-26T10:31:46.796Z,7.30
2022-11-26T10:34:39.317Z,7.30
2022-11-26T10:37:06.899Z,7.30
2022-11-26T10:39:34.019Z,7.30
2022-11-26T10:42:09.838Z,7.40
2022-11-26T10:44:41.313Z,7.40
2022-11-26T10:47:25.423Z,7.40
2022-11-26T10:49:55.360Z,7.40
2022-11-26T10:52:28.487Z,7.40
2022-11-26T10:55:26.113Z,7.50
2022-11-26T10:58:04.475Z,7.50
2022-11-26T11:00:40.744Z,7.50
2022-11-26T11:03:44.914Z,7.50
2022-11-26T11:06:41.650Z,7.50
2022-11-26T11:09:35.042Z,7.60
2022-11-26T11:12:18.158Z,7.60
2022-11-26T11:14:47.261Z,7.60
2022-11-26T11:17:34.437Z,7.60
2022-11-26T11:20:27.312Z,7.60
2022-11-26T11:23:01.433Z,7.60
2022-11-26T11:25:36.684Z,7.60
2022-11-26T11:28:17.227Z,7.70
2022-11-26T11:30:46.523Z,7.80
2022-11-26T11:33:25.110Z,7.80
2022-11-26T11:36:07.591Z,7.90
2022-11-26T11:39:00.699Z,7.90
2022-11-26T11:41:31.715Z,7.90
2022-11-26T11:44:02.125Z,7.90
2022-11-26T11:47:06.016Z,7.90
2022-11-26T11:49:47.924Z,7.90
2022-11-26T11:52:39.830Z,7.90
2022-11-26T11:55:13.304Z,7.90
2022-11-26T11:57:46.256Z,7.90
2022-11-26T12:00:27.434Z,8.00
2022-11-26T12:03:22.608Z,8.00
2022-11-26T12:06:10.235Z,8.10
2022-11-26T12:08:58.688Z,8.10
2022-11-26T12:12:07.496Z,8.10
2022-11-26T12:14:49.953Z,8.10
2022-11-26T12:17:30.334Z,8.10
2022-11-26T12:20:13.452Z,8.10
2022-11-26T12:22:44.846Z,8.20
2022-11-26T12:25:36.947Z,8.20
2022-11-26T12:28:13.314Z,8.20
2022-11-26T12:30:45.867Z,8.20
2022-11-26T12:33:31.085Z,8.20
2022-11-26T12:36:04.415Z,8.20
2022-11-26T12:38:48.562Z,8.20
2022-11-26T12:41:34.483Z,8.20
2022-11-26T12:44:26.067Z,8.20
2022-11-26T12:47:09.089Z,8.10
2022-11-26T12:50:07.903Z,8.10
2022-11-26T12:53:08.926Z,8.20
2022-11-26T12:56:01.016Z,8.20
2022-11-26T12:58:46.582Z,8.20
2022-11-26T13:01:13.845Z,8.20
2022-11-26T13:03:41.645Z,8.20
2022-11-26T13:06:15.019Z,8.20
2022-11-26T13:08:57.532Z,8.10
2022-11-26T13:11:43.464Z,8.20
2022-11-26T13:14:31.719Z,8.10
2022-11-26T13:17:15.840Z,8.10
2022-11-26T13:19:49.443Z,8.20
2022-11-26T13:22:16.655Z,8.20
2022-11-26T13:25:12.860Z,8.20
2022-11-26T13:27:58.529Z,8.20
2022-11-26T13:30:48.457Z,8.20
2022-11-26T13:33:33.886Z,8.10
2022-11-26T13:36:07.034Z,8.10
2022-11-26T13:38:56.775Z,8.10
2022-11-26T13:41:23.848Z,8.10
2022-11-26T13:44:28.477Z,8.10
2022-11-26T13:46:57.830Z,8.00
2022-11-26T13:49:47.134Z,8.00
2022-11-26T13:52:23.658Z,8.00
2022-11-26T13:55:15.925Z,8.00
2022-11-26T13:57:50.211Z,8.00
2022-11-26T14:00:27.549Z,8.00
2022-11-26T14:02:55.107Z,8.00
2022-11-26T14:06:06.511Z,8.10
2022-11-26T14:08:46.179Z,9.00
2022-11-26T14:11:41.414Z,8.10
2022-11-26T14:14:27.222Z,8.10
2022-11-26T14:17:09.631Z,8.10
2022-11-26T14:19:39.982Z,8.20
2022-11-26T14:22:31.572Z,8.20
2022-11-26T14:25:06.509Z,8.20
2022-11-26T14:27:54.129Z,8.20
2022-11-26T14:30:41.634Z,8.20
2022-11-26T14:33:24.640Z,8.20
2022-11-26T14:35:59.871Z,8.10
2022-11-26T14:38:29.097Z,8.10
2022-11-26T14:41:01.098Z,8.10
2022-11-26T14:43:29.811Z,8.10
2022-11-26T14:46:21.164Z,8.10
2022-11-26T14:48:59.608Z,8.20
2022-11-26T14:51:32.806Z,8.20
2022-11-26T14:54:01.345Z,8.20
2022-11-26T14:56:30.643Z,8.20
2022-11-26T14:59:01.065Z,8.20
2022-11-26T15:01:31.049Z,8.30
2022-11-26T15:04:06.509Z,8.40
2022-11-26T15:06:39.625Z,8.30
2022-11-26T15:09:16.623Z,8.40
2022-11-26T15:12:17.018Z,8.30
2022-11-26T15:14:57.005Z,8.30
2022-11-26T15:17:26.866Z,8.30
2022-11-26T15:20:04.701Z,8.30
2022-11-26T15:23:19.050Z,8.30
2022-11-26T15:25:52.460Z,8.30
2022-11-26T15:28:23.789Z,8.30
2022-11-26T15:31:04.877Z,8.30
2022-11-26T15:33:42.848Z,8.30
2022-11-26T15:36:16.033Z,8.40
2022-11-26T15:39:03.579Z,8.40
2022-11-26T15:41:31.497Z,8.40
2022-11-26T15:44:02.246Z,8.40
2022-11-26T15:46:35.798Z,8.40
2022-11-26T15:49:20.907Z,8.30
2022-11-26T15:51:57.508Z,8.30
2022-11-26T15:54:56.793Z,8.30
2022-11-26T15:57:37.339Z,8.30
2022-11-26T16:00:08.531Z,8.30
2022-11-26T16:02:39.509Z,8.20
2022-11-26T16:05:29.629Z,8.20
2022-11-26T16:07:58.847Z,8.20
2022-11-26T16:10:28.426Z,8.20
2022-11-26T16:13:19.960Z,8.20
2022-11-26T16:15:48.346Z,8.20
2022-11-26T16:18:18.896Z,8.20
2022-11-26T16:20:46.472Z,8.10
2022-11-26T16:23:27.136Z,8.10
2022-11-26T16:26:09.277Z,8.10
2022-11-26T16:28:36.477Z,8.10
2022-11-26T16:31:03.876Z,8.10
2022-11-26T16:33:31.466Z,8.10
2022-11-26T16:35:58.783Z,8.10
2022-11-26T16:38:27.726Z,8.10
2022-11-26T16:40:55.768Z,8.00
2022-11-26T16:43:24.030Z,8.00
2022-11-26T16:45:55.326Z,8.00
2022-11-26T16:48:25.992Z,8.00
2022-11-26T16:50:55.023Z,8.10
2022-11-26T16:53:49.961Z,8.10
2022-11-26T16:56:22.759Z,8.20
2022-11-26T16:58:50.583Z,8.20
2022-11-26T17:01:18.232Z,8.20
2022-11-26T17:03:45.762Z,8.20
2022-11-26T17:06:43.684Z,8.30
2022-11-26T17:09:20.067Z,8.30
2022-11-26T17:11:47.162Z,8.30
2022-11-26T17:14:16.611Z,8.30
2022-11-26T17:16:43.821Z,8.30
2022-11-26T17:19:15.288Z,8.30
2022-11-26T17:21:42.661Z,8.30
2022-11-26T17:24:09.705Z,8.40
2022-11-26T17:26:36.782Z,8.40
2022-11-26T17:29:04.142Z,8.30
2022-11-26T17:31:31.408Z,8.40
2022-11-26T17:34:07.767Z,8.30
2022-11-26T17:36:37.045Z,8.30
2022-11-26T17:39:04.596Z,8.30
2022-11-26T17:41:31.653Z,8.30
2022-11-26T17:43:58.706Z,8.30
2022-11-26T17:46:25.984Z,8.30
2022-11-26T17:48:58.284Z,8.40
2022-11-26T17:51:30.143Z,8.40
2022-11-26T17:53:57.341Z,8.30
2022-11-26T17:56:28.058Z,8.30
2022-11-26T17:58:55.967Z,8.30
2022-11-26T18:01:23.524Z,8.30
2022-11-26T18:03:52.784Z,8.20
2022-11-26T18:06:42.242Z,8.20
2022-11-26T18:09:09.497Z,8.20
2022-11-26T18:11:47.608Z,8.20
2022-11-26T18:14:14.864Z,8.30
2022-11-26T18:16:42.127Z,8.30
2022-11-26T18:19:10.805Z,8.30
2022-11-26T18:21:38.937Z,8.30
2022-11-26T18:24:07.518Z,8.40
2022-11-26T18:26:35.639Z,8.40
2022-11-26T18:29:03.895Z,8.40
2022-11-26T18:31:37.983Z,8.40
2022-11-26T18:34:07.449Z,8.40
2022-11-26T18:36:34.531Z,8.40
2022-11-26T18:39:04.500Z,8.40
2022-11-26T18:41:31.834Z,8.40
2022-11-26T18:43:59.030Z,8.30
2022-11-26T18:46:26.322Z,8.30
2022-11-26T18:48:56.353Z,8.20
2022-11-26T18:51:24.216Z,8.30
2022-11-26T18:53:51.518Z,8.30
2022-11-26T18:56:20.490Z,8.30
2022-11-26T18:58:47.691Z,8.30
2022-11-26T19:01:20.575Z,8.30
2022-11-26T19:03:47.692Z,8.30
2022-11-26T19:06:17.565Z,8.30
2022-11-26T19:08:45.377Z,8.30
2022-11-26T19:11:15.838Z,8.30
2022-11-26T19:13:43.129Z,8.30
2022-11-26T19:16:16.662Z,8.30
2022-11-26T19:18:45.585Z,8.30
2022-11-26T19:21:33.396Z,8.30
2022-11-26T19:24:03.747Z,8.20
2022-11-26T19:26:31.210Z,8.20
2022-11-26T19:29:03.016Z,8.20
2022-11-26T19:31:30.789Z,8.20
2022-11-26T19:34:01.209Z,8.20
2022-11-26T19:36:30.005Z,8.20
2022-11-26T19:38:58.844Z,8.20
2022-11-26T19:41:27.061Z,8.20
2022-11-26T19:43:55.073Z,8.20
2022-11-26T19:46:24.529Z,8.20
2022-11-26T19:48:53.445Z,8.20
2022-11-26T19:51:23.517Z,8.20
2022-11-26T19:53:53.060Z,8.20
2022-11-26T19:56:29.107Z,8.20
2022-11-26T19:59:02.384Z,8.20
2022-11-26T20:01:34.734Z,8.20
2022-11-26T20:04:05.448Z,8.20
2022-11-26T20:06:34.137Z,8.20
2022-11-26T20:09:01.748Z,8.20
2022-11-26T20:11:29.593Z,8.20
2022-11-26T20:13:58.101Z,8.20
2022-11-26T20:16:27.842Z,8.20
2022-11-26T20:18:56.061Z,8.20
2022-11-26T20:21:27.893Z,8.20
2022-11-26T20:23:57.662Z,8.20
2022-11-26T20:26:30.611Z,8.10
2022-11-26T20:29:01.696Z,8.10
2022-11-26T20:31:29.044Z,8.10
2022-11-26T20:33:56.905Z,8.10
2022-11-26T20:36:24.534Z,8.00
2022-11-26T20:38:56.362Z,8.00
2022-11-26T20:41:26.430Z,8.00
2022-11-26T20:43:58.689Z,8.00
2022-11-26T20:46:27.838Z,8.00
2022-11-26T20:48:55.502Z,8.00
2022-11-26T20:51:23.338Z,7.90
2022-11-26T20:53:51.971Z,7.90
2022-11-26T20:56:21.228Z,7.90
2022-11-26T20:58:49.383Z,7.90
2022-11-26T21:01:22.176Z,7.80
2022-11-26T21:03:49.909Z,7.80
2022-11-26T21:06:20.168Z,7.80
2022-11-26T21:08:48.833Z,7.80
2022-11-26T21:11:17.125Z,7.80
2022-11-26T21:13:44.544Z,7.80
2022-11-26T21:16:16.681Z,7.80
2022-11-26T21:18:44.307Z,7.80
2022-11-26T21:21:14.389Z,7.80
2022-11-26T21:23:42.774Z,7.80
2022-11-26T21:26:13.468Z,7.80
2022-11-26T21:28:40.849Z,7.80
2022-11-26T21:31:14.055Z,7.80
2022-11-26T21:33:41.205Z,7.80
2022-11-26T21:36:10.911Z,7.90
2022-11-26T21:38:38.630Z,7.80
2022-11-26T21:41:13.082Z,7.90
2022-11-26T21:43:41.379Z,7.90
2022-11-26T21:46:13.274Z,7.80
2022-11-26T21:48:40.371Z,7.90
2022-11-26T21:51:13.222Z,7.90
2022-11-26T21:53:40.889Z,7.90
2022-11-26T21:56:18.138Z,7.80
2022-11-26T21:58:45.596Z,7.80
2022-11-26T22:01:14.952Z,7.80
2022-11-26T22:03:44.264Z,7.80
2022-11-26T22:06:11.990Z,7.80
2022-11-26T22:08:39.990Z,7.80
2022-11-26T22:11:18.112Z,7.80
2022-11-26T22:13:45.779Z,7.80
2022-11-26T22:16:18.011Z,7.80
2022-11-26T22:18:46.318Z,7.80
2022-11-26T22:21:19.689Z,7.80
2022-11-26T22:23:47.117Z,7.80
2022-11-26T22:26:14.841Z,7.80
2022-11-26T22:28:42.308Z,7.80
2022-11-26T22:31:17.093Z,7.80
2022-11-26T22:33:44.377Z,7.80
2022-11-26T22:36:12.293Z,7.80
2022-11-26T22:38:40.553Z,7.80
2022-11-26T22:41:10.331Z,7.80
2022-11-26T22:43:37.803Z,7.80
2022-11-26T22:46:06.671Z,7.80
2022-11-26T22:48:35.257Z,7.80
2022-11-26T22:51:02.950Z,7.80
2022-11-26T22:53:30.525Z,7.80
2022-11-26T22:55:59.603Z,7.80
2022-11-26T22:58:28.031Z,7.80
2022-11-26T23:00:58.426Z,7.80
2022-11-26T23:03:27.929Z,7.80
2022-11-26T23:05:55.455Z,7.80
2022-11-26T23:08:22.998Z,7.80
2022-11-26T23:10:50.126Z,7.90
2022-11-26T23:13:18.323Z,7.80
2022-11-26T23:15:46.927Z,7.90
2022-11-26T23:18:15.489Z,7.90
2022-11-26T23:20:43.524Z,7.80
2022-11-26T23:23:10.672Z,7.80
2022-11-26T23:25:39.769Z,7.80
2022-11-26T23:28:07.983Z,7.80
2022-11-26T23:30:35.939Z,7.80
2022-11-26T23:33:03.165Z,7.80
2022-11-26T23:35:30.328Z,7.80
2022-11-26T23:37:57.710Z,7.80
2022-11-26T23:40:25.010Z,7.80
2022-11-26T23:42:52.143Z,7.80
2022-11-26T23:45:19.648Z,7.80
2022-11-26T23:47:46.699Z,7.80
2022-11-26T23:50:13.850Z,7.80
2022-11-26T23:52:40.949Z,7.80
2022-11-26T23:55:09.076Z,7.80
2022-11-26T23:57:37.757Z,7.80
